createdAt,value
2023-01-03T00:00:00.238Z,101080.77
2023-01-03T00:02:48.915Z,101079.33
2023-01-03T00:05:37.542Z,101077.27
2023-01-03T00:08:27.031Z,101067.67
2023-01-03T00:11:16.303Z,101059.47
2023-01-03T00:14:04.581Z,101056.84
2023-01-03T00:16:54.368Z,101041.36
2023-01-03T00:19:43.979Z,101046.77
2023-01-03T00:22:32.216Z,101035.70
2023-01-03T00:25:20.686Z,101027.52
2023-01-03T00:28:09.261Z,101013.23
2023-01-03T00:30:57.820Z,100992.73
2023-01-03T00:33:46.434Z,100985.15
2023-01-03T00:36:35.714Z,100973.33
2023-01-03T00:39:24.649Z,100964.05
2023-01-03T00:42:13.058Z,100960.06
2023-01-03T00:45:01.517Z,100957.09
2023-01-03T00:47:49.992Z,100950.09
2023-01-03T00:50:39.060Z,100936.98
2023-01-03T00:53:27.552Z,100922.01
2023-01-03T00:56:16.702Z,100927.90
2023-01-03T00:59:05.939Z,100916.55
2023-01-03T01:01:56.265Z,100909.57
2023-01-03T01:04:44.839Z,100905.60
2023-01-03T01:07:33.301Z,100892.23
2023-01-03T01:10:21.775Z,100888.16
2023-01-03T01:13:10.327Z,100888.83
2023-01-03T01:16:01.729Z,100875.86
2023-01-03T01:18:53.077Z,100868.89
2023-01-03T01:21:41.502Z,100865.77
2023-01-03T01:24:29.950Z,100869.83
2023-01-03T01:27:18.412Z,100859.27
2023-01-03T01:30:07.753Z,100852.56
2023-01-03T01:32:56.139Z,100852.14
2023-01-03T01:35:44.652Z,100854.89
2023-01-03T01:38:33.241Z,100852.30
2023-01-03T01:41:36.218Z,100855.16
2023-01-03T01:44:43.874Z,100835.25
2023-01-03T01:47:35.476Z,100822.79
2023-01-03T01:50:25.880Z,100821.58
2023-01-03T01:53:15.850Z,100813.72
2023-01-03T01:56:07.788Z,100809.03
2023-01-03T01:58:56.374Z,100797.77
2023-01-03T02:01:46.340Z,100788.52
2023-01-03T02:04:36.443Z,100775.02
2023-01-03T02:07:24.942Z,100775.86
2023-01-03T02:10:13.518Z,100767.36
2023-01-03T02:13:06.263Z,100771.55
2023-01-03T02:16:03.680Z,100766.12
2023-01-03T02:18:54.173Z,100750.65
2023-01-03T02:21:56.237Z,100738.88
2023-01-03T02:25:10.836Z,100718.14
2023-01-03T02:28:22.552Z,100710.14
2023-01-03T02:31:13.538Z,100714.91
2023-01-03T02:34:04.659Z,100706.38
2023-01-03T02:37:00.679Z,100695.69
2023-01-03T02:39:53.881Z,100692.46
2023-01-03T02:43:01.775Z,100683.83
2023-01-03T02:46:01.795Z,100678.10
2023-01-03T02:48:54.199Z,100666.45
2023-01-03T02:51:44.296Z,100647.95
2023-01-03T02:54:37.437Z,100630.48
2023-01-03T02:57:29.770Z,100619.20
2023-01-03T03:00:21.327Z,100603.02
2023-01-03T03:03:12.999Z,100599.44
2023-01-03T03:06:06.906Z,100594.33
2023-01-03T03:08:55.271Z,100590.63
2023-01-03T03:12:02.541Z,100574.19
2023-01-03T03:14:52.273Z,100556.55
2023-01-03T03:17:42.282Z,100548.71
2023-01-03T03:20:49.407Z,100539.30
2023-01-03T03:23:57.996Z,100531.56
2023-01-03T03:26:47.902Z,100514.43
2023-01-03T03:29:36.049Z,100504.41
2023-01-03T03:32:25.247Z,100501.88
2023-01-03T03:35:15.368Z,100489.70
2023-01-03T03:38:05.367Z,100486.77
2023-01-03T03:41:15.905Z,100471.06
2023-01-03T03:44:26.652Z,100455.07
2023-01-03T03:47:19.088Z,100445.08
2023-01-03T03:50:09.477Z,100446.48
2023-01-03T03:52:59.431Z,100438.57
2023-01-03T03:55:49.936Z,100433.04
2023-01-03T03:58:39.992Z,100431.46
2023-01-03T04:01:29.350Z,100428.48
2023-01-03T04:04:20.900Z,100423.11
2023-01-03T04:07:09.221Z,100427.21
2023-01-03T04:09:57.813Z,100427.77
2023-01-03T04:12:46.597Z,100431.95
2023-01-03T04:15:35.099Z,100431.47
2023-01-03T04:18:23.630Z,100427.14
2023-01-03T04:21:17.030Z,100423.83
2023-01-03T04:24:09.154Z,100431.86
2023-01-03T04:26:57.701Z,100436.56
2023-01-03T04:29:46.252Z,100435.63
2023-01-03T04:32:35.691Z,100436.38
2023-01-03T04:35:25.306Z,100434.81
2023-01-03T04:38:14.448Z,100433.76
2023-01-03T04:41:07.522Z,100426.79
2023-01-03T04:44:04.689Z,100422.25
2023-01-03T04:46:53.390Z,100425.91
2023-01-03T04:49:45.227Z,100420.67
2023-01-03T04:52:33.610Z,100421.23
2023-01-03T04:55:22.286Z,100425.11
2023-01-03T04:58:10.845Z,100428.77
2023-01-03T05:01:02.879Z,100442.67
2023-01-03T05:03:51.548Z,100447.30
2023-01-03T05:06:40.109Z,100451.52
2023-01-03T05:09:28.754Z,100462.73
2023-01-03T05:12:18.426Z,100474.02
2023-01-03T05:15:09.289Z,100483.80
2023-01-03T05:17:58.259Z,100494.36
2023-01-03T05:21:04.883Z,100495.43
2023-01-03T05:24:11.538Z,100500.60
2023-01-03T05:27:01.537Z,100498.76
2023-01-03T05:29:51.814Z,100502.55
2023-01-03T05:32:40.034Z,100502.49
2023-01-03T05:35:30.425Z,100503.67
2023-01-03T05:38:40.515Z,100498.14
2023-01-03T05:41:47.518Z,100495.33
2023-01-03T05:44:36.211Z,100498.23
2023-01-03T05:47:25.868Z,100498.02
2023-01-03T05:50:14.417Z,100501.42
2023-01-03T05:53:04.151Z,100503.11
2023-01-03T05:55:52.283Z,100502.00
2023-01-03T05:58:42.452Z,100508.26
2023-01-03T06:01:30.537Z,100509.28
2023-01-03T06:04:19.230Z,100511.39
2023-01-03T06:07:09.130Z,100510.59
2023-01-03T06:09:57.626Z,100511.70
2023-01-03T06:12:46.217Z,100517.55
2023-01-03T06:15:34.811Z,100521.83
2023-01-03T06:18:23.883Z,100519.23
2023-01-03T06:21:12.440Z,100522.00
2023-01-03T06:24:01.340Z,100518.73
2023-01-03T06:26:50.178Z,100513.69
2023-01-03T06:29:38.985Z,100518.41
2023-01-03T06:32:27.667Z,100521.07
2023-01-03T06:35:16.335Z,100523.73
2023-01-03T06:38:05.233Z,100529.14
2023-01-03T06:40:54.014Z,100537.47
2023-01-03T06:43:43.167Z,100535.73
2023-01-03T06:46:49.944Z,100537.30
2023-01-03T06:49:56.756Z,100535.08
2023-01-03T06:53:03.637Z,100528.60
2023-01-03T06:55:56.802Z,100532.48
2023-01-03T06:58:46.289Z,100539.77
2023-01-03T07:01:35.014Z,100536.52
2023-01-03T07:04:24.796Z,100539.76
2023-01-03T07:07:13.412Z,100536.05
2023-01-03T07:10:02.338Z,100541.09
2023-01-03T07:13:08.963Z,100542.86
2023-01-03T07:15:57.692Z,100540.09
2023-01-03T07:18:54.443Z,100538.70
2023-01-03T07:21:44.238Z,100540.39
2023-01-03T07:24:32.645Z,100535.41
2023-01-03T07:27:21.332Z,100534.84
2023-01-03T07:30:10.867Z,100538.71
2023-01-03T07:32:59.320Z,100534.29
2023-01-03T07:35:47.709Z,100537.45
2023-01-03T07:38:36.524Z,100531.17
2023-01-03T07:41:45.271Z,100531.27
2023-01-03T07:44:33.707Z,100525.30
2023-01-03T07:47:22.165Z,100522.70
2023-01-03T07:50:10.739Z,100519.11
2023-01-03T07:52:59.233Z,100516.40
2023-01-03T07:55:47.750Z,100513.08
2023-01-03T07:58:36.379Z,100517.20
2023-01-03T08:01:25.494Z,100512.73
2023-01-03T08:04:14.139Z,100506.79
2023-01-03T08:07:02.685Z,100502.88
2023-01-03T08:10:09.766Z,100499.45
2023-01-03T08:13:16.467Z,100497.64
2023-01-03T08:16:05.577Z,100495.54
2023-01-03T08:18:54.710Z,100491.23
2023-01-03T08:21:43.210Z,100493.04
2023-01-03T08:24:32.074Z,100491.51
2023-01-03T08:27:20.589Z,100490.10
2023-01-03T08:30:10.548Z,100486.73
2023-01-03T08:33:01.520Z,100482.06
2023-01-03T08:35:51.807Z,100481.14
2023-01-03T08:38:41.888Z,100479.02
2023-01-03T08:41:31.833Z,100473.33
2023-01-03T08:44:22.683Z,100470.13
2023-01-03T08:47:12.138Z,100465.50
2023-01-03T08:50:00.652Z,100459.23
2023-01-03T08:52:49.570Z,100450.34
2023-01-03T08:55:37.721Z,100457.11
2023-01-03T08:58:26.347Z,100457.48
2023-01-03T09:01:15.159Z,100457.27
2023-01-03T09:04:04.952Z,100458.07
2023-01-03T09:06:53.203Z,100451.72
2023-01-03T09:09:41.746Z,100444.40
2023-01-03T09:12:34.439Z,100447.35
2023-01-03T09:15:23.007Z,100446.85
2023-01-03T09:18:12.262Z,100436.83
2023-01-03T09:21:02.627Z,100428.99
2023-01-03T09:23:51.331Z,100424.85
2023-01-03T09:26:39.938Z,100422.27
2023-01-03T09:29:28.472Z,100413.23
2023-01-03T09:32:17.124Z,100407.69
2023-01-03T09:35:06.467Z,100405.29
2023-01-03T09:37:54.916Z,100403.80
2023-01-03T09:40:44.823Z,100382.59
2023-01-03T09:43:36.837Z,100383.00
2023-01-03T09:46:25.760Z,100381.52
2023-01-03T09:49:14.856Z,100375.26
2023-01-03T09:52:22.443Z,100372.24
2023-01-03T09:55:39.926Z,100370.86
2023-01-03T09:58:46.482Z,100362.99
2023-01-03T10:01:57.456Z,100349.45
2023-01-03T10:04:53.962Z,100346.90
2023-01-03T10:07:49.976Z,100345.36
2023-01-03T10:10:44.231Z,100332.77
2023-01-03T10:13:40.725Z,100329.27
2023-01-03T10:16:35.724Z,100329.09
2023-01-03T10:19:32.837Z,100320.42
2023-01-03T10:22:23.861Z,100315.35
2023-01-03T10:25:15.137Z,100315.30
2023-01-03T10:28:09.940Z,100313.67
2023-01-03T10:31:08.304Z,100313.98
2023-01-03T10:33:58.612Z,100314.81
2023-01-03T10:36:47.165Z,100318.15
2023-01-03T10:39:35.817Z,100315.67
2023-01-03T10:42:28.766Z,100308.38
2023-01-03T10:45:17.930Z,100302.33
2023-01-03T10:48:14.153Z,100298.11
2023-01-03T10:51:04.401Z,100285.84
2023-01-03T10:53:53.859Z,100272.13
2023-01-03T10:56:42.325Z,100262.43
2023-01-03T10:59:31.689Z,100253.39
2023-01-03T11:02:21.354Z,100236.70
2023-01-03T11:05:11.897Z,100227.94
2023-01-03T11:08:02.537Z,100220.24
2023-01-03T11:10:55.683Z,100213.10
2023-01-03T11:13:43.828Z,100201.85
2023-01-03T11:16:32.429Z,100199.42
2023-01-03T11:19:20.916Z,100188.65
2023-01-03T11:22:13.572Z,100188.11
2023-01-03T11:25:08.701Z,100182.41
2023-01-03T11:28:10.383Z,100172.62
2023-01-03T11:31:05.724Z,100166.34
2023-01-03T11:34:00.327Z,100155.98
2023-01-03T11:36:52.113Z,100143.45
2023-01-03T11:39:50.660Z,100132.58
2023-01-03T11:42:48.062Z,100122.27
2023-01-03T11:45:53.083Z,100111.79
2023-01-03T11:48:59.307Z,100097.36
2023-01-03T11:51:52.577Z,100093.14
2023-01-03T11:54:56.783Z,100094.92
2023-01-03T11:57:51.060Z,100078.58
2023-01-03T12:00:46.684Z,100069.46
2023-01-03T12:03:43.358Z,100069.86
2023-01-03T12:06:34.698Z,100072.36
2023-01-03T12:09:26.484Z,100076.61
2023-01-03T12:12:23.041Z,100078.33
2023-01-03T12:15:16.999Z,100072.83
2023-01-03T12:18:09.156Z,100053.91
2023-01-03T12:21:00.296Z,100042.27
2023-01-03T12:23:51.546Z,100032.75
2023-01-03T12:26:41.341Z,100028.34
2023-01-03T12:29:34.154Z,100013.94
2023-01-03T12:32:25.395Z,100007.55
2023-01-03T12:35:23.177Z,100007.39
2023-01-03T12:38:12.242Z,100002.45
2023-01-03T12:41:04.788Z,99983.71
2023-01-03T12:43:58.646Z,99978.95
2023-01-03T12:46:50.031Z,99975.27
2023-01-03T12:49:43.299Z,99966.17
2023-01-03T12:52:32.304Z,99962.65
2023-01-03T12:55:24.855Z,99972.63
2023-01-03T12:58:31.193Z,99967.29
2023-01-03T13:01:26.959Z,99948.30
2023-01-03T13:04:23.287Z,99938.34
2023-01-03T13:07:14.538Z,99942.80
2023-01-03T13:10:05.130Z,99950.21
2023-01-03T13:12:53.877Z,99928.52
2023-01-03T13:15:42.687Z,99905.48
2023-01-03T13:18:37.133Z,99900.83
2023-01-03T13:21:43.715Z,99912.50
2023-01-03T13:24:42.115Z,99907.38
2023-01-03T13:27:37.754Z,99909.84
2023-01-03T13:30:26.711Z,99908.73
2023-01-03T13:33:20.179Z,99892.24
2023-01-03T13:36:10.642Z,99886.35
2023-01-03T13:39:00.352Z,99877.98
2023-01-03T13:41:54.023Z,99883.43
2023-01-03T13:44:42.525Z,99873.64
2023-01-03T13:47:36.263Z,99869.71
2023-01-03T13:50:26.776Z,99875.02
2023-01-03T13:53:29.574Z,99887.64
2023-01-03T13:56:22.802Z,99877.15
2023-01-03T13:59:18.991Z,99880.70
2023-01-03T14:02:28.849Z,99891.13
2023-01-03T14:05:29.053Z,99894.73
2023-01-03T14:08:28.141Z,99882.66
2023-01-03T14:11:34.259Z,99885.40
2023-01-03T14:14:24.159Z,99889.70
2023-01-03T14:17:16.985Z,99879.63
2023-01-03T14:20:08.948Z,99876.19
2023-01-03T14:23:11.638Z,99871.36
2023-01-03T14:26:13.653Z,99870.48
2023-01-03T14:29:02.555Z,99857.59
2023-01-03T14:31:53.061Z,99856.50
2023-01-03T14:34:41.892Z,99850.77
2023-01-03T14:37:32.441Z,99861.89
2023-01-03T14:40:21.467Z,99863.76
2023-01-03T14:43:16.179Z,99863.38
2023-01-03T14:46:11.982Z,99865.05
2023-01-03T14:49:03.461Z,99859.75
2023-01-03T14:52:03.418Z,99856.81
2023-01-03T14:54:57.236Z,99850.23
2023-01-03T14:57:49.826Z,99848.28
2023-01-03T15:00:39.611Z,99851.42
2023-01-03T15:03:31.034Z,99855.02
2023-01-03T15:06:21.028Z,99852.83
2023-01-03T15:09:21.645Z,99849.52
2023-01-03T15:12:13.739Z,99851.98
2023-01-03T15:15:07.531Z,99854.20
2023-01-03T15:17:59.286Z,99854.98
2023-01-03T15:20:50.104Z,99858.96
2023-01-03T15:23:40.233Z,99861.53
2023-01-03T15:26:37.571Z,99860.12
2023-01-03T15:29:27.989Z,99853.17
2023-01-03T15:32:18.693Z,99858.27
2023-01-03T15:35:18.339Z,99868.58
2023-01-03T15:38:08.267Z,99870.37
2023-01-03T15:40:56.476Z,99869.61
2023-01-03T15:43:47.995Z,99873.84
2023-01-03T15:46:36.533Z,99863.42
2023-01-03T15:49:26.445Z,99865.13
2023-01-03T15:52:15.655Z,99861.89
2023-01-03T15:55:04.146Z,99862.64
2023-01-03T15:57:53.461Z,99860.27
2023-01-03T16:00:41.935Z,99863.60
2023-01-03T16:03:31.659Z,99868.10
2023-01-03T16:06:20.234Z,99879.03
2023-01-03T16:09:09.370Z,99881.63
2023-01-03T16:11:58.474Z,99871.55
2023-01-03T16:14:49.301Z,99878.48
2023-01-03T16:17:37.901Z,99888.86
2023-01-03T16:20:26.704Z,99891.49
2023-01-03T16:23:24.573Z,99890.04
2023-01-03T16:26:13.570Z,99884.77
2023-01-03T16:29:01.888Z,99894.86
2023-01-03T16:31:50.335Z,99898.37
2023-01-03T16:34:38.796Z,99892.88
2023-01-03T16:37:28.375Z,99892.14
2023-01-03T16:40:18.346Z,99888.30
2023-01-03T16:43:06.708Z,99894.51
2023-01-03T16:45:58.152Z,99892.02
2023-01-03T16:48:47.514Z,99898.63
2023-01-03T16:51:36.393Z,99902.27
2023-01-03T16:54:25.349Z,99905.13
2023-01-03T16:57:17.355Z,99906.69
2023-01-03T17:00:13.886Z,99899.88
2023-01-03T17:03:02.438Z,99889.95
2023-01-03T17:05:51.135Z,99901.04
2023-01-03T17:08:40.872Z,99898.64
2023-01-03T17:11:29.411Z,99902.23
2023-01-03T17:14:20.099Z,99898.73
2023-01-03T17:17:14.861Z,99895.50
2023-01-03T17:20:06.732Z,99891.14
2023-01-03T17:22:56.729Z,99885.58
2023-01-03T17:25:44.887Z,99889.05
2023-01-03T17:28:34.452Z,99898.86
2023-01-03T17:31:24.020Z,99895.70
2023-01-03T17:34:24.647Z,99895.34
2023-01-03T17:37:15.121Z,99886.76
2023-01-03T17:40:03.258Z,99882.27
2023-01-03T17:42:53.518Z,99881.37
2023-01-03T17:46:00.463Z,99877.42
2023-01-03T17:49:07.587Z,99881.98
2023-01-03T17:51:57.522Z,99879.36
2023-01-03T17:54:46.035Z,99853.40
2023-01-03T17:57:35.122Z,99845.17
2023-01-03T18:00:25.837Z,99848.82
2023-01-03T18:03:14.440Z,99856.93
2023-01-03T18:06:05.332Z,99864.95
2023-01-03T18:08:55.325Z,99878.57
2023-01-03T18:11:43.750Z,99871.73
2023-01-03T18:14:32.228Z,99859.10
2023-01-03T18:17:25.671Z,99848.38
2023-01-03T18:20:15.062Z,99860.98
2023-01-03T18:23:03.288Z,99854.67
2023-01-03T18:25:52.247Z,99861.48
2023-01-03T18:28:40.485Z,99875.86
2023-01-03T18:31:29.546Z,99882.79
2023-01-03T18:34:18.092Z,99873.91
2023-01-03T18:37:08.607Z,99868.77
2023-01-03T18:39:56.988Z,99866.38
2023-01-03T18:43:04.098Z,99873.44
2023-01-03T18:45:52.923Z,99869.12
2023-01-03T18:48:41.799Z,99872.16
2023-01-03T18:51:30.229Z,99874.33
2023-01-03T18:54:19.294Z,99868.89
2023-01-03T18:57:11.550Z,99866.23
2023-01-03T18:59:59.910Z,99861.80
2023-01-03T19:02:48.910Z,99858.67
2023-01-03T19:05:37.434Z,99852.47
2023-01-03T19:08:26.641Z,99849.27
2023-01-03T19:11:16.155Z,99843.83
2023-01-03T19:14:04.561Z,99846.58
2023-01-03T19:16:52.979Z,99842.93
2023-01-03T19:19:41.304Z,99837.39
2023-01-03T19:22:32.470Z,99841.30
2023-01-03T19:25:23.436Z,99842.31
2023-01-03T19:28:12.238Z,99838.69
2023-01-03T19:31:00.689Z,99839.25
2023-01-03T19:33:50.252Z,99836.95
2023-01-03T19:36:38.611Z,99840.65
2023-01-03T19:39:30.898Z,99839.50
2023-01-03T19:42:40.427Z,99837.09
2023-01-03T19:45:30.522Z,99836.13
2023-01-03T19:48:19.811Z,99828.11
2023-01-03T19:51:08.734Z,99817.23
2023-01-03T19:53:56.755Z,99815.17
2023-01-03T19:56:45.404Z,99818.67
2023-01-03T19:59:35.211Z,99810.05
2023-01-03T20:02:33.825Z,99800.44
2023-01-03T20:05:23.108Z,99801.28
2023-01-03T20:08:12.838Z,99788.42
2023-01-03T20:11:01.717Z,99789.23
2023-01-03T20:13:50.142Z,99786.09
2023-01-03T20:16:38.525Z,99793.18
2023-01-03T20:19:27.305Z,99782.52
2023-01-03T20:22:53.017Z,99780.55
2023-01-03T20:25:25.811Z,99776.36
2023-01-03T20:28:17.246Z,99774.30
2023-01-03T20:31:07.541Z,99770.89
2023-01-03T20:33:55.766Z,99768.70
2023-01-03T20:36:46.502Z,99770.52
2023-01-03T20:39:35.809Z,99771.13
2023-01-03T20:42:24.345Z,99776.33
2023-01-03T20:45:13.673Z,99774.67
2023-01-03T20:48:02.094Z,99782.94
2023-01-03T20:50:50.513Z,99792.98
2023-01-03T20:53:42.908Z,99785.68
2023-01-03T20:56:32.734Z,99785.36
2023-01-03T20:59:21.303Z,99777.17
2023-01-03T21:02:10.537Z,99787.38
2023-01-03T21:04:59.153Z,99788.43
2023-01-03T21:08:06.524Z,99785.10
2023-01-03T21:10:55.105Z,99787.59
2023-01-03T21:13:43.556Z,99801.15
2023-01-03T21:16:33.894Z,99800.96
2023-01-03T21:19:23.815Z,99805.11
2023-01-03T21:22:17.444Z,99800.34
2023-01-03T21:25:07.531Z,99800.81
2023-01-03T21:27:56.336Z,99808.32
2023-01-03T21:30:44.313Z,99811.10
2023-01-03T21:33:32.703Z,99816.92
2023-01-03T21:36:23.376Z,99823.52
2023-01-03T21:39:11.649Z,99826.45
2023-01-03T21:42:18.160Z,99830.96
2023-01-03T21:45:10.766Z,99845.89
2023-01-03T21:47:59.179Z,99856.84
2023-01-03T21:50:49.255Z,99858.47
2023-01-03T21:53:37.794Z,99866.14
2023-01-03T21:56:26.285Z,99865.01
2023-01-03T21:59:15.718Z,99860.23
2023-01-03T22:02:22.595Z,99864.89
2023-01-03T22:05:11.052Z,99877.41
2023-01-03T22:08:00.895Z,99868.41
2023-01-03T22:10:49.047Z,99875.86
2023-01-03T22:13:37.494Z,99885.12
2023-01-03T22:16:26.269Z,99878.96
2023-01-03T22:19:14.846Z,99883.02
2023-01-03T22:22:04.263Z,99888.46
2023-01-03T22:24:52.772Z,99892.92
2023-01-03T22:27:41.568Z,99889.84
2023-01-03T22:30:29.959Z,99900.27
2023-01-03T22:33:18.367Z,99894.70
2023-01-03T22:36:08.198Z,99895.61
2023-01-03T22:38:56.224Z,99903.45
2023-01-03T22:41:45.375Z,99907.29
2023-01-03T22:44:33.841Z,99904.20
2023-01-03T22:47:22.312Z,99907.54
2023-01-03T22:50:11.389Z,99916.96
2023-01-03T22:52:59.826Z,99929.87
2023-01-03T22:55:48.278Z,99933.23
2023-01-03T22:58:37.372Z,99931.17
2023-01-03T23:01:27.183Z,99932.55
2023-01-03T23:04:18.611Z,99937.95
2023-01-03T23:07:07.095Z,99948.48
2023-01-03T23:09:55.561Z,99962.35
2023-01-03T23:13:00.251Z,99959.04
2023-01-03T23:15:48.703Z,99953.63
2023-01-03T23:18:37.156Z,99951.41
2023-01-03T23:21:25.875Z,99948.52
2023-01-03T23:24:15.065Z,99953.77
2023-01-03T23:27:03.569Z,99953.70
2023-01-03T23:29:52.000Z,99961.59
2023-01-03T23:32:40.400Z,99960.69
2023-01-03T23:35:28.863Z,99962.66
2023-01-03T23:38:17.371Z,99969.47
2023-01-03T23:41:06.122Z,99975.39
2023-01-03T23:43:54.676Z,99973.59
2023-01-03T23:46:43.128Z,99975.25
2023-01-03T23:49:31.519Z,99982.02
2023-01-03T23:52:19.875Z,99981.98
2023-01-03T23:55:12.649Z,99981.05
2023-01-03T23:58:01.126Z,99980.95
